createdAt,value
2019-01-24T00:02:01.928Z,89.26
2019-01-24T00:04:31.036Z,88.98
2019-01-24T00:07:00.141Z,89.16
2019-01-24T00:09:29.250Z,89.16
2019-01-24T00:11:58.341Z,91.01
2019-01-24T00:14:27.795Z,90.06
2019-01-24T00:16:57.016Z,89.64
2019-01-24T00:19:26.024Z,88.99
2019-01-24T00:21:55.027Z,89.03
2019-01-24T00:24:24.650Z,90.58
2019-01-24T00:26:56.982Z,89.04
2019-01-24T00:29:26.024Z,90.95
2019-01-24T00:31:55.037Z,89.49
2019-01-24T00:34:24.047Z,91.30
2019-01-24T00:36:53.163Z,91.30
2019-01-24T00:39:22.244Z,90.08
2019-01-24T00:41:51.341Z,86.97
2019-01-24T00:44:20.422Z,87.80
2019-01-24T00:46:49.733Z,90.49
2019-01-24T00:49:18.946Z,90.49
2019-01-24T00:51:48.032Z,89.57
2019-01-24T00:54:17.140Z,89.57
2019-01-24T00:56:46.220Z,90.24
2019-01-24T00:59:15.359Z,90.24
2019-01-24T01:01:44.403Z,90.87
2019-01-24T01:04:13.611Z,91.29
2019-01-24T01:06:47.022Z,91.34
2019-01-24T01:09:13.632Z,89.98
2019-01-24T01:11:42.811Z,89.98
2019-01-24T01:14:12.727Z,90.69
2019-01-24T01:16:41.852Z,89.95
2019-01-24T01:19:11.033Z,90.90
2019-01-24T01:21:40.147Z,89.63
2019-01-24T01:24:10.268Z,88.11
2019-01-24T01:26:39.411Z,90.87
2019-01-24T01:29:08.407Z,91.90
2019-01-24T01:31:38.586Z,90.96
2019-01-24T01:34:07.695Z,91.14
2019-01-24T01:36:36.719Z,91.14
2019-01-24T01:39:08.458Z,92.23
2019-01-24T01:41:37.571Z,92.23
2019-01-24T01:44:06.641Z,90.64
2019-01-24T01:46:35.682Z,90.64
2019-01-24T01:49:04.928Z,90.39
2019-01-24T01:51:34.055Z,90.39
2019-01-24T01:54:04.568Z,90.76
2019-01-24T01:56:33.658Z,91.55
2019-01-24T01:59:08.600Z,91.51
2019-01-24T02:01:33.687Z,88.28
2019-01-24T02:04:02.720Z,89.96
2019-01-24T02:06:31.907Z,89.88
2019-01-24T02:09:02.221Z,89.88
2019-01-24T02:11:31.486Z,89.22
2019-01-24T02:14:01.515Z,90.98
2019-01-24T02:16:30.600Z,89.61
2019-01-24T02:19:00.839Z,90.16
2019-01-24T02:21:30.800Z,90.92
2019-01-24T02:23:59.967Z,91.47
2019-01-24T02:26:29.142Z,91.47
2019-01-24T02:28:59.258Z,90.42
2019-01-24T02:31:28.483Z,89.40
2019-01-24T02:33:57.622Z,90.77
2019-01-24T02:36:26.732Z,89.68
2019-01-24T02:38:55.838Z,90.64
2019-01-24T02:41:24.889Z,89.73
2019-01-24T02:43:53.936Z,89.73
2019-01-24T02:46:24.090Z,89.65
2019-01-24T02:48:53.205Z,89.60
2019-01-24T02:51:22.246Z,91.19
2019-01-24T02:53:51.348Z,90.11
2019-01-24T02:56:21.743Z,88.83
2019-01-24T02:58:50.810Z,87.91
2019-01-24T03:01:19.903Z,89.29
2019-01-24T03:03:48.922Z,89.76
2019-01-24T03:06:18.957Z,89.84
2019-01-24T03:08:47.986Z,89.02
2019-01-24T03:11:17.116Z,90.20
2019-01-24T03:13:46.135Z,89.64
2019-01-24T03:16:15.226Z,90.22
2019-01-24T03:18:44.946Z,89.55
2019-01-24T03:21:14.124Z,89.39
2019-01-24T03:23:43.246Z,89.39
2019-01-24T03:26:12.327Z,90.15
2019-01-24T03:28:41.340Z,90.67
2019-01-24T03:31:10.451Z,89.93
2019-01-24T03:33:39.553Z,89.54
2019-01-24T03:36:08.677Z,90.75
2019-01-24T03:38:44.965Z,90.36
2019-01-24T03:41:22.948Z,91.27
2019-01-24T03:43:52.317Z,90.71
2019-01-24T03:46:21.677Z,91.23
2019-01-24T03:48:50.763Z,90.35
2019-01-24T03:51:20.659Z,90.38
2019-01-24T03:53:49.728Z,90.60
2019-01-24T03:56:18.852Z,90.60
2019-01-24T03:58:48.055Z,91.04
2019-01-24T04:01:17.176Z,90.77
2019-01-24T04:03:46.263Z,90.29
2019-01-24T04:06:15.316Z,91.76
2019-01-24T04:08:44.331Z,90.26
2019-01-24T04:11:13.311Z,91.69
2019-01-24T04:13:42.345Z,91.71
2019-01-24T04:16:11.473Z,91.61
2019-01-24T04:18:42.940Z,88.56
2019-01-24T04:21:12.988Z,91.10
2019-01-24T04:23:42.013Z,89.48
2019-01-24T04:26:11.063Z,89.48
2019-01-24T04:28:43.430Z,88.40
2019-01-24T04:31:12.508Z,88.48
2019-01-24T04:33:41.525Z,91.36
2019-01-24T04:36:10.563Z,89.05
2019-01-24T04:38:39.612Z,91.13
2019-01-24T04:41:15.832Z,91.67
2019-01-24T04:43:44.952Z,89.26
2019-01-24T04:46:14.010Z,90.13
2019-01-24T04:48:43.040Z,90.13
2019-01-24T04:51:12.146Z,91.63
2019-01-24T04:53:41.163Z,91.33
2019-01-24T04:56:10.271Z,91.11
2019-01-24T04:58:39.293Z,92.05
2019-01-24T05:01:08.463Z,92.05
2019-01-24T05:03:37.479Z,90.72
2019-01-24T05:06:08.281Z,90.72
2019-01-24T05:08:37.413Z,89.24
2019-01-24T05:11:06.502Z,89.24
2019-01-24T05:13:35.538Z,89.13
2019-01-24T05:16:07.042Z,90.52
2019-01-24T05:18:36.086Z,91.23
2019-01-24T05:21:05.199Z,91.16
2019-01-24T05:23:36.239Z,92.20
2019-01-24T05:26:05.409Z,92.06
2019-01-24T05:28:34.501Z,92.34
2019-01-24T05:31:03.706Z,92.34
2019-01-24T05:33:32.835Z,91.31
2019-01-24T05:36:01.986Z,91.95
2019-01-24T05:38:32.472Z,91.95
2019-01-24T05:41:04.662Z,92.36
2019-01-24T05:43:35.819Z,92.28
2019-01-24T05:46:07.093Z,91.85
2019-01-24T05:48:36.161Z,92.12
2019-01-24T05:51:05.494Z,92.91
2019-01-24T05:53:35.951Z,92.47
2019-01-24T05:56:05.110Z,91.97
2019-01-24T05:58:34.171Z,90.81
2019-01-24T06:01:05.008Z,92.05
2019-01-24T06:03:34.112Z,90.91
2019-01-24T06:06:04.566Z,91.21
2019-01-24T06:08:33.640Z,91.62
2019-01-24T06:11:05.048Z,90.86
2019-01-24T06:13:34.077Z,90.74
2019-01-24T06:16:03.324Z,91.38
2019-01-24T06:18:32.371Z,89.67
2019-01-24T06:21:02.742Z,89.67
2019-01-24T06:23:32.049Z,91.35
2019-01-24T06:26:01.525Z,91.69
2019-01-24T06:28:30.560Z,90.89
2019-01-24T06:30:59.653Z,90.89
2019-01-24T06:33:36.328Z,91.96
2019-01-24T06:36:05.477Z,90.76
2019-01-24T06:38:34.683Z,91.78
2019-01-24T06:41:03.800Z,91.78
2019-01-24T06:43:34.546Z,92.71
2019-01-24T06:47:01.106Z,92.71
2019-01-24T06:49:30.207Z,90.52
2019-01-24T06:51:59.335Z,92.08
2019-01-24T06:54:28.447Z,91.06
2019-01-24T06:56:57.543Z,91.06
2019-01-24T06:59:27.633Z,92.16
2019-01-24T07:01:56.735Z,90.28
2019-01-24T07:04:29.065Z,90.71
2019-01-24T07:06:58.205Z,92.18
2019-01-24T07:09:29.456Z,91.27
2019-01-24T07:11:59.398Z,90.73
2019-01-24T07:14:28.625Z,91.34
2019-01-24T07:16:59.978Z,90.59
2019-01-24T07:19:35.852Z,90.96
2019-01-24T07:30:26.500Z,91.18
2019-01-24T07:57:54.804Z,91.45
2019-01-24T08:13:43.681Z,90.21
2019-01-24T08:16:48.407Z,90.18
2019-01-24T08:19:11.181Z,90.82
2019-01-24T08:21:48.729Z,91.28
2019-01-24T08:24:39.395Z,91.50
2019-01-24T08:27:27.425Z,90.56
2019-01-24T08:30:07.359Z,91.60
2019-01-24T08:32:47.676Z,92.25
2019-01-24T08:35:17.117Z,92.04
2019-01-24T08:37:46.642Z,91.32
2019-01-24T08:40:33.536Z,91.69
2019-01-24T08:43:07.357Z,91.69
2019-01-24T08:45:39.236Z,91.24
2019-01-24T08:48:11.693Z,91.11
2019-01-24T08:50:41.188Z,91.56
2019-01-24T08:53:10.591Z,91.56
2019-01-24T08:55:45.841Z,90.31
2019-01-24T08:58:12.895Z,89.43
2019-01-24T09:00:42.258Z,89.43
2019-01-24T09:03:11.884Z,89.94
2019-01-24T09:05:48.669Z,90.72
2019-01-24T09:08:22.535Z,89.73
2019-01-24T09:10:51.798Z,91.40
2019-01-24T09:13:26.226Z,91.40
2019-01-24T09:15:56.924Z,90.73
2019-01-24T09:18:33.637Z,90.73
2019-01-24T09:21:04.201Z,90.59
2019-01-24T09:23:33.616Z,89.98
2019-01-24T09:26:06.045Z,90.29
2019-01-24T09:28:37.867Z,90.29
2019-01-24T09:31:07.072Z,90.45
2019-01-24T09:33:40.451Z,90.64
2019-01-24T09:36:10.795Z,90.17
2019-01-24T09:38:42.849Z,90.03
2019-01-24T09:41:12.524Z,89.10
2019-01-24T09:43:44.004Z,88.79
2019-01-24T09:46:13.196Z,88.79
2019-01-24T09:48:45.997Z,89.28
2019-01-24T09:51:36.320Z,90.79
2019-01-24T09:54:09.479Z,90.79
2019-01-24T09:56:38.686Z,90.33
2019-01-24T09:59:09.279Z,89.24
2019-01-24T10:01:38.825Z,87.62
2019-01-24T10:04:08.205Z,87.50
2019-01-24T10:06:37.296Z,87.50
2019-01-24T10:09:12.563Z,88.12
2019-01-24T10:11:49.905Z,87.73
2019-01-24T10:14:22.005Z,88.89
2019-01-24T10:16:55.389Z,88.47
2019-01-24T10:19:29.535Z,88.47
2019-01-24T10:21:58.644Z,87.16
2019-01-24T10:24:27.750Z,87.16
2019-01-24T10:26:57.050Z,87.06
2019-01-24T10:29:26.315Z,87.34
2019-01-24T10:31:55.537Z,87.87
2019-01-24T10:34:24.629Z,87.87
2019-01-24T10:36:54.914Z,88.70
2019-01-24T10:39:26.408Z,87.86
2019-01-24T10:41:55.772Z,87.86
2019-01-24T10:44:24.847Z,88.02
2019-01-24T10:46:53.952Z,87.12
2019-01-24T10:49:22.961Z,86.09
2019-01-24T10:51:52.153Z,85.44
2019-01-24T10:54:22.071Z,85.82
2019-01-24T10:56:51.285Z,87.07
2019-01-24T10:59:20.500Z,87.06
2019-01-24T11:01:49.586Z,86.11
2019-01-24T11:04:18.703Z,86.72
2019-01-24T11:06:50.115Z,85.47
2019-01-24T11:09:18.784Z,85.68
2019-01-24T11:11:48.628Z,85.68
2019-01-24T11:14:17.804Z,87.07
2019-01-24T11:16:46.915Z,87.18
2019-01-24T11:19:18.378Z,85.69
2019-01-24T11:21:47.395Z,86.30
2019-01-24T11:24:16.445Z,84.79
2019-01-24T11:26:45.549Z,86.06
2019-01-24T11:29:14.649Z,84.84
2019-01-24T11:31:43.788Z,84.05
2019-01-24T11:34:12.911Z,85.10
2019-01-24T11:36:45.141Z,85.54
2019-01-24T11:39:14.318Z,86.01
2019-01-24T11:41:43.631Z,85.22
2019-01-24T11:44:12.677Z,86.07
2019-01-24T11:46:43.109Z,85.39
2019-01-24T11:49:12.309Z,86.18
2019-01-24T11:51:41.407Z,86.34
2019-01-24T11:54:10.496Z,85.95
2019-01-24T11:56:40.521Z,86.81
2019-01-24T11:59:10.666Z,85.17
2019-01-24T12:01:43.749Z,85.79
2019-01-24T12:04:12.740Z,84.87
2019-01-24T12:06:41.807Z,85.57
2019-01-24T12:09:10.964Z,85.21
2019-01-24T12:11:43.426Z,86.98
2019-01-24T12:14:12.437Z,85.18
2019-01-24T12:16:41.475Z,85.93
2019-01-24T12:19:10.520Z,85.92
2019-01-24T12:21:43.088Z,83.62
2019-01-24T12:24:12.182Z,84.21
2019-01-24T12:26:41.346Z,84.21
2019-01-24T12:29:33.071Z,84.10
2019-01-24T12:32:02.176Z,86.46
2019-01-24T12:34:31.190Z,86.72
2019-01-24T12:37:01.400Z,86.83
2019-01-24T12:39:32.648Z,85.96
2019-01-24T12:42:01.676Z,84.56
2019-01-24T12:44:31.496Z,86.14
2019-01-24T12:47:01.699Z,87.34
2019-01-24T12:49:30.867Z,87.16
2019-01-24T12:52:02.182Z,87.16
2019-01-24T12:54:32.008Z,87.96
2019-01-24T12:57:02.651Z,87.96
2019-01-24T12:59:31.676Z,86.88
2019-01-24T13:02:00.963Z,85.63
2019-01-24T13:04:29.994Z,85.23
2019-01-24T13:07:01.951Z,86.00
2019-01-24T13:09:31.126Z,86.40
2019-01-24T13:12:00.166Z,86.40
2019-01-24T13:14:29.222Z,86.39
2019-01-24T13:16:58.537Z,87.33
2019-01-24T13:19:27.679Z,86.64
2019-01-24T13:21:56.995Z,86.82
2019-01-24T13:24:29.944Z,87.28
2019-01-24T13:26:59.395Z,87.73
2019-01-24T13:29:28.524Z,86.12
2019-01-24T13:31:57.701Z,86.52
2019-01-24T13:35:03.069Z,86.88
2019-01-24T13:38:02.325Z,85.79
2019-01-24T13:41:18.384Z,86.00
2019-01-24T13:43:47.485Z,86.21
2019-01-24T13:46:16.683Z,86.21
2019-01-24T13:48:48.486Z,85.55
2019-01-24T13:53:45.345Z,86.30
2019-01-24T13:56:14.728Z,86.30
2019-01-24T13:58:43.837Z,86.05
2019-01-24T14:01:12.948Z,85.93
2019-01-24T14:03:53.298Z,87.13
2019-01-24T14:06:22.459Z,86.35
2019-01-24T14:08:55.302Z,86.04
2019-01-24T14:11:24.452Z,86.04
2019-01-24T14:13:56.678Z,86.08
2019-01-24T14:16:25.819Z,85.67
2019-01-24T14:18:55.589Z,85.52
2019-01-24T14:21:24.897Z,86.50
2019-01-24T14:23:57.857Z,86.64
2019-01-24T14:26:33.155Z,86.64
2019-01-24T14:29:02.612Z,87.29
2019-01-24T14:31:31.769Z,88.72
2019-01-24T14:34:02.860Z,88.72
2019-01-24T14:36:33.241Z,86.63
2019-01-24T14:39:02.258Z,86.27
2019-01-24T14:41:31.261Z,86.71
2019-01-24T14:44:00.301Z,87.38
2019-01-24T14:46:29.468Z,86.72
2019-01-24T14:48:58.677Z,87.35
2019-01-24T14:51:28.063Z,87.62
2019-01-24T14:53:57.799Z,88.65
2019-01-24T14:56:26.836Z,88.62
2019-01-24T14:58:57.137Z,88.83
2019-01-24T15:01:27.312Z,87.62
2019-01-24T15:03:58.438Z,87.62
2019-01-24T15:06:29.979Z,88.93
2019-01-24T15:09:38.043Z,86.47
2019-01-24T15:12:07.157Z,86.65
2019-01-24T15:14:36.199Z,87.09
2019-01-24T15:17:05.495Z,88.18
2019-01-24T15:19:34.515Z,88.18
2019-01-24T15:22:05.166Z,87.22
2019-01-24T15:24:34.262Z,87.84
2019-01-24T15:27:03.371Z,88.18
2019-01-24T15:29:32.421Z,88.04
2019-01-24T15:32:01.451Z,87.50
2019-01-24T15:34:30.543Z,87.21
2019-01-24T15:36:59.726Z,87.61
2019-01-24T15:39:28.896Z,87.26
2019-01-24T15:41:58.026Z,88.75
2019-01-24T15:44:28.245Z,88.31
2019-01-24T15:46:57.621Z,88.73
2019-01-24T15:49:26.667Z,88.01
2019-01-24T15:51:56.051Z,87.33
2019-01-24T15:54:31.879Z,87.87
2019-01-24T15:59:53.519Z,88.97
2019-01-24T16:02:23.086Z,88.08
2019-01-24T16:04:53.590Z,88.25
2019-01-24T16:07:22.699Z,89.87
2019-01-24T16:09:53.086Z,88.31
2019-01-24T16:12:22.154Z,88.31
2019-01-24T16:14:52.385Z,88.31
2019-01-24T16:17:22.687Z,87.77
2019-01-24T16:19:54.161Z,88.79
2019-01-24T16:22:23.190Z,88.79
2019-01-24T16:24:52.308Z,89.77
2019-01-24T16:27:21.408Z,88.25
2019-01-24T16:29:54.720Z,88.71
2019-01-24T16:32:24.705Z,88.78
2019-01-24T16:34:53.701Z,88.12
2019-01-24T16:37:25.255Z,88.73
2019-01-24T16:39:54.454Z,88.73
2019-01-24T16:42:25.416Z,88.85
2019-01-24T16:44:57.092Z,88.85
2019-01-24T16:47:26.744Z,88.87
2019-01-24T16:49:57.872Z,89.02
2019-01-24T16:52:27.082Z,88.60
2019-01-24T16:54:59.547Z,88.92
2019-01-24T16:57:28.575Z,89.59
2019-01-24T16:59:58.845Z,90.03
2019-01-24T17:02:28.254Z,89.39
2019-01-24T17:04:57.269Z,89.92
2019-01-24T17:07:26.424Z,90.04
2019-01-24T17:09:57.040Z,89.25
2019-01-24T17:12:26.223Z,88.89
2019-01-24T17:14:57.665Z,88.86
2019-01-24T17:17:26.848Z,88.86
2019-01-24T17:19:57.453Z,88.93
2019-01-24T17:22:26.663Z,90.23
2019-01-24T17:24:55.951Z,89.87
2019-01-24T17:27:25.031Z,88.52
2019-01-24T17:29:55.347Z,88.43
2019-01-24T17:32:25.743Z,89.16
2019-01-24T17:34:54.903Z,88.99
2019-01-24T17:37:23.974Z,88.26
2019-01-24T17:39:56.222Z,88.26
2019-01-24T17:42:25.373Z,88.41
2019-01-24T17:44:55.823Z,89.58
2019-01-24T17:47:24.879Z,89.58
2019-01-24T17:49:53.974Z,87.55
2019-01-24T17:52:24.074Z,87.83
2019-01-24T17:54:53.606Z,87.90
2019-01-24T17:57:24.457Z,88.88
2019-01-24T17:59:53.933Z,87.99
2019-01-24T18:02:23.137Z,87.69
2019-01-24T18:04:52.522Z,87.69
2019-01-24T18:07:21.986Z,87.69
2019-01-24T18:09:51.752Z,87.15
2019-01-24T18:12:20.962Z,88.86
2019-01-24T18:14:51.485Z,88.10
2019-01-24T18:17:21.212Z,89.41
2019-01-24T18:19:52.239Z,88.41
2019-01-24T18:22:22.454Z,88.36
2019-01-24T18:24:53.202Z,87.98
2019-01-24T18:27:30.486Z,89.96
2019-01-24T18:30:06.116Z,89.20
2019-01-24T18:32:41.586Z,89.20
2019-01-24T18:35:15.741Z,88.88
2019-01-24T18:37:46.596Z,89.79
2019-01-24T18:40:20.793Z,89.79
2019-01-24T18:42:50.629Z,88.38
2019-01-24T18:45:25.447Z,88.38
2019-01-24T18:47:55.907Z,88.55
2019-01-24T18:50:27.678Z,90.48
2019-01-24T18:52:57.126Z,91.23
2019-01-24T18:55:27.747Z,90.29
2019-01-24T18:57:56.961Z,90.48
2019-01-24T19:00:46.655Z,89.14
2019-01-24T19:03:15.903Z,90.66
2019-01-24T19:05:47.296Z,89.14
2019-01-24T19:08:16.714Z,90.44
2019-01-24T19:10:46.277Z,89.90
2019-01-24T19:13:15.929Z,89.88
2019-01-24T19:15:46.988Z,89.88
2019-01-24T19:18:17.398Z,89.88
2019-01-24T19:20:46.496Z,89.88
2019-01-24T19:23:15.655Z,90.85
2019-01-24T19:25:44.837Z,91.70
2019-01-24T19:28:16.355Z,91.16
2019-01-24T19:30:46.673Z,91.16
2019-01-24T19:33:16.054Z,90.97
2019-01-24T19:35:50.357Z,91.03
2019-01-24T19:38:20.950Z,91.03
2019-01-24T19:40:50.288Z,89.68
2019-01-24T19:43:21.529Z,90.10
2019-01-24T19:45:50.933Z,90.73
2019-01-24T19:48:20.172Z,89.89
2019-01-24T19:50:49.559Z,89.09
2019-01-24T19:53:18.949Z,90.88
2019-01-24T19:55:58.689Z,90.88
2019-01-24T19:58:31.999Z,91.31
2019-01-24T20:01:01.303Z,89.43
2019-01-24T20:03:32.016Z,90.64
2019-01-24T20:06:01.451Z,91.51
2019-01-24T20:08:30.934Z,89.08
2019-01-24T20:11:02.664Z,89.65
2019-01-24T20:13:33.478Z,90.70
2019-01-24T20:16:02.901Z,89.91
2019-01-24T20:18:32.103Z,89.70
2019-01-24T20:21:02.259Z,90.07
2019-01-24T20:23:32.860Z,90.02
2019-01-24T20:26:04.925Z,90.09
2019-01-24T20:28:37.297Z,90.05
2019-01-24T20:31:06.908Z,90.97
2019-01-24T20:33:37.052Z,89.19
2019-01-24T20:36:06.561Z,90.49
2019-01-24T20:38:35.733Z,89.11
2019-01-24T20:41:06.272Z,90.47
2019-01-24T20:43:37.809Z,89.20
2019-01-24T20:46:08.972Z,89.20
2019-01-24T20:48:38.459Z,90.02
2019-01-24T20:51:07.793Z,90.87
2019-01-24T20:53:37.166Z,90.11
2019-01-24T20:56:06.655Z,90.11
2019-01-24T20:58:38.323Z,90.53
2019-01-24T21:01:07.762Z,90.98
2019-01-24T21:03:37.047Z,90.98
2019-01-24T21:06:08.795Z,89.84
2019-01-24T21:08:41.965Z,90.02
2019-01-24T21:11:13.426Z,90.40
2019-01-24T21:13:44.108Z,90.40
2019-01-24T21:16:17.324Z,89.81
2019-01-24T21:18:47.258Z,89.82
2019-01-24T21:21:16.618Z,91.02
2019-01-24T21:23:45.807Z,90.20
2019-01-24T21:26:15.075Z,88.66
2019-01-24T21:28:44.384Z,90.32
2019-01-24T21:31:14.014Z,90.05
2019-01-24T21:33:43.309Z,90.33
2019-01-24T21:36:12.780Z,90.33
2019-01-24T21:38:43.498Z,89.30
2019-01-24T21:41:12.882Z,89.90
2019-01-24T21:43:46.166Z,90.34
2019-01-24T21:46:15.851Z,90.03
2019-01-24T21:48:47.045Z,91.92
2019-01-24T21:51:17.055Z,91.63
2019-01-24T21:53:46.477Z,88.99
2019-01-24T21:56:24.698Z,89.61
2019-01-24T21:58:54.884Z,90.01
2019-01-24T22:01:24.581Z,90.75
2019-01-24T22:03:55.589Z,90.89
2019-01-24T22:06:27.360Z,91.07
2019-01-24T22:09:01.024Z,91.48
2019-01-24T22:11:31.715Z,91.84
2019-01-24T22:14:01.089Z,91.63
2019-01-24T22:16:30.728Z,91.11
2019-01-24T22:19:00.059Z,91.42
2019-01-24T22:21:29.342Z,90.52
2019-01-24T22:23:58.571Z,92.16
2019-01-24T22:26:27.725Z,90.57
2019-01-24T22:28:56.776Z,89.06
2019-01-24T22:31:27.887Z,91.45
2019-01-24T22:33:56.982Z,90.55
2019-01-24T22:36:26.047Z,91.44
2019-01-24T22:38:55.190Z,91.44
2019-01-24T22:41:24.351Z,91.11
2019-01-24T22:43:53.474Z,90.69
2019-01-24T22:46:22.519Z,91.68
2019-01-24T22:48:51.632Z,91.68
2019-01-24T22:51:20.801Z,90.38
2019-01-24T22:53:49.883Z,92.41
2019-01-24T22:56:19.019Z,91.48
2019-01-24T22:58:48.288Z,92.19
2019-01-24T23:01:36.581Z,92.14
2019-01-24T23:04:24.621Z,91.63
2019-01-24T23:06:55.095Z,90.01
2019-01-24T23:09:24.137Z,92.17
2019-01-24T23:11:53.380Z,90.81
2019-01-24T23:14:22.474Z,90.38
2019-01-24T23:16:51.517Z,91.69
2019-01-24T23:19:22.978Z,91.54
2019-01-24T23:21:52.127Z,91.54
2019-01-24T23:24:21.256Z,92.28
2019-01-24T23:26:50.325Z,92.02
2019-01-24T23:29:19.740Z,92.79
2019-01-24T23:31:48.980Z,91.59
2019-01-24T23:34:18.122Z,92.45
2019-01-24T23:36:50.600Z,92.46
2019-01-24T23:39:19.811Z,93.40
2019-01-24T23:41:49.014Z,93.23
2019-01-24T23:44:18.218Z,93.37
2019-01-24T23:46:47.585Z,93.42
2019-01-24T23:49:16.795Z,93.07
2019-01-24T23:51:46.011Z,92.49
2019-01-24T23:54:15.203Z,92.49
2019-01-24T23:56:44.498Z,91.17
2019-01-24T23:59:13.646Z,93.13
